sensor_id;sensor_type;location;lat;lon;timestamp;pressure;altitude;pressure_sealevel;temperature
77789;BMP280;66980;44.384;0.512;2023-02-22T00:00:35;101500.22;;;21.30
77789;BMP280;66980;44.384;0.512;2023-02-22T00:03:13;101499.72;;;21.31
77789;BMP280;66980;44.384;0.512;2023-02-22T00:05:43;101498.56;;;21.27
77789;BMP280;66980;44.384;0.512;2023-02-22T00:08:16;101497.06;;;21.26
77789;BMP280;66980;44.384;0.512;2023-02-22T00:10:42;101494.13;;;21.24
77789;BMP280;66980;44.384;0.512;2023-02-22T00:13:10;101497.63;;;21.24
77789;BMP280;66980;44.384;0.512;2023-02-22T00:15:37;101500.19;;;21.22
77789;BMP280;66980;44.384;0.512;2023-02-22T00:18:06;101494.44;;;21.20
77789;BMP280;66980;44.384;0.512;2023-02-22T00:20:35;101490.75;;;21.17
77789;BMP280;66980;44.384;0.512;2023-02-22T00:23:04;101495.34;;;21.15
77789;BMP280;66980;44.384;0.512;2023-02-22T00:25:32;101489.81;;;21.15
77789;BMP280;66980;44.384;0.512;2023-02-22T00:27:58;101481.84;;;21.11
77789;BMP280;66980;44.384;0.512;2023-02-22T00:30:27;101482.94;;;21.08
77789;BMP280;66980;44.384;0.512;2023-02-22T00:32:55;101478.91;;;21.09
77789;BMP280;66980;44.384;0.512;2023-02-22T00:35:22;101476.69;;;21.08
77789;BMP280;66980;44.384;0.512;2023-02-22T00:37:48;101486.25;;;21.07
77789;BMP280;66980;44.384;0.512;2023-02-22T00:40:17;101470.00;;;21.03
77789;BMP280;66980;44.384;0.512;2023-02-22T00:42:43;101463.34;;;20.99
77789;BMP280;66980;44.384;0.512;2023-02-22T00:45:11;101472.19;;;20.97
77789;BMP280;66980;44.384;0.512;2023-02-22T00:47:36;101483.41;;;20.99
77789;BMP280;66980;44.384;0.512;2023-02-22T00:50:02;101485.44;;;20.99
77789;BMP280;66980;44.384;0.512;2023-02-22T00:52:28;101483.22;;;20.97
77789;BMP280;66980;44.384;0.512;2023-02-22T00:54:54;101484.06;;;20.92
77789;BMP280;66980;44.384;0.512;2023-02-22T00:57:21;101476.47;;;20.85
77789;BMP280;66980;44.384;0.512;2023-02-22T00:59:46;101495.13;;;20.92
77789;BMP280;66980;44.384;0.512;2023-02-22T01:02:12;101489.94;;;20.88
77789;BMP280;66980;44.384;0.512;2023-02-22T01:04:38;101499.72;;;20.89
77789;BMP280;66980;44.384;0.512;2023-02-22T01:07:03;101503.34;;;20.84
77789;BMP280;66980;44.384;0.512;2023-02-22T01:09:29;101508.63;;;20.82
77789;BMP280;66980;44.384;0.512;2023-02-22T01:11:55;101510.84;;;20.84
77789;BMP280;66980;44.384;0.512;2023-02-22T01:14:23;101519.91;;;20.84
77789;BMP280;66980;44.384;0.512;2023-02-22T01:16:55;101514.16;;;20.82
77789;BMP280;66980;44.384;0.512;2023-02-22T01:19:21;101517.47;;;20.81
77789;BMP280;66980;44.384;0.512;2023-02-22T01:21:48;101507.41;;;20.70
77789;BMP280;66980;44.384;0.512;2023-02-22T01:24:15;101529.59;;;20.78
77789;BMP280;66980;44.384;0.512;2023-02-22T01:26:42;101536.38;;;20.77
77789;BMP280;66980;44.384;0.512;2023-02-22T01:29:11;101530.44;;;20.73
77789;BMP280;66980;44.384;0.512;2023-02-22T01:31:40;101524.50;;;20.68
77789;BMP280;66980;44.384;0.512;2023-02-22T01:34:09;101538.72;;;20.73
77789;BMP280;66980;44.384;0.512;2023-02-22T01:36:34;101526.72;;;20.70
77789;BMP280;66980;44.384;0.512;2023-02-22T01:39:00;101538.31;;;20.68
77789;BMP280;66980;44.384;0.512;2023-02-22T01:41:25;101530.34;;;20.65
77789;BMP280;66980;44.384;0.512;2023-02-22T01:43:51;101531.09;;;20.65
77789;BMP280;66980;44.384;0.512;2023-02-22T01:46:21;101527.59;;;20.65
77789;BMP280;66980;44.384;0.512;2023-02-22T01:48:59;101528.88;;;20.64
77789;BMP280;66980;44.384;0.512;2023-02-22T01:51:33;101531.41;;;20.62
77789;BMP280;66980;44.384;0.512;2023-02-22T01:54:05;101523.69;;;20.60
77789;BMP280;66980;44.384;0.512;2023-02-22T01:56:33;101519.97;;;20.58
77789;BMP280;66980;44.384;0.512;2023-02-22T01:59:04;101507.78;;;20.53
77789;BMP280;66980;44.384;0.512;2023-02-22T02:01:31;101508.00;;;20.55
77789;BMP280;66980;44.384;0.512;2023-02-22T02:03:59;101512.00;;;20.54
77789;BMP280;66980;44.384;0.512;2023-02-22T02:06:27;101498.88;;;20.47
77789;BMP280;66980;44.384;0.512;2023-02-22T02:09:43;101506.28;;;20.52
77789;BMP280;66980;44.384;0.512;2023-02-22T02:11:44;101497.81;;;20.50
77789;BMP280;66980;44.384;0.512;2023-02-22T02:14:11;101497.81;;;20.50
77789;BMP280;66980;44.384;0.512;2023-02-22T02:16:39;101500.91;;;20.47
77789;BMP280;66980;44.384;0.512;2023-02-22T02:19:13;101490.41;;;20.45
77789;BMP280;66980;44.384;0.512;2023-02-22T02:21:53;101495.91;;;20.45
77789;BMP280;66980;44.384;0.512;2023-02-22T02:27:19;101490.94;;;20.43
77789;BMP280;66980;44.384;0.512;2023-02-22T02:38:01;101482.38;;;20.34
77789;BMP280;66980;44.384;0.512;2023-02-22T02:40:48;101492.13;;;20.35
77789;BMP280;66980;44.384;0.512;2023-02-22T02:46:18;101489.66;;;20.31
77789;BMP280;66980;44.384;0.512;2023-02-22T02:48:50;101486.19;;;20.31
77789;BMP280;66980;44.384;0.512;2023-02-22T02:51:19;101489.50;;;20.29
77789;BMP280;66980;44.384;0.512;2023-02-22T02:53:47;101495.53;;;20.28
77789;BMP280;66980;44.384;0.512;2023-02-22T02:56:13;101487.06;;;20.26
77789;BMP280;66980;44.384;0.512;2023-02-22T02:58:56;101494.38;;;20.23
77789;BMP280;66980;44.384;0.512;2023-02-22T03:06:35;101495.66;;;20.22
77789;BMP280;66980;44.384;0.512;2023-02-22T03:12:23;101486.00;;;20.15
77789;BMP280;66980;44.384;0.512;2023-02-22T03:18:07;101490.22;;;20.16
77789;BMP280;66980;44.384;0.512;2023-02-22T03:20:43;101485.25;;;20.15
77789;BMP280;66980;44.384;0.512;2023-02-22T03:23:20;101490.00;;;20.14
77789;BMP280;66980;44.384;0.512;2023-02-22T03:25:54;101489.06;;;20.12
77789;BMP280;66980;44.384;0.512;2023-02-22T03:28:23;101486.84;;;20.10
77789;BMP280;66980;44.384;0.512;2023-02-22T03:30:55;101485.38;;;20.09
77789;BMP280;66980;44.384;0.512;2023-02-22T03:36:00;101477.22;;;20.04
77789;BMP280;66980;44.384;0.512;2023-02-22T03:38:30;101475.22;;;20.04
77789;BMP280;66980;44.384;0.512;2023-02-22T03:41:00;101493.19;;;20.05
77789;BMP280;66980;44.384;0.512;2023-02-22T03:43:35;101491.75;;;20.04
77789;BMP280;66980;44.384;0.512;2023-02-22T03:46:02;101480.50;;;20.02
77789;BMP280;66980;44.384;0.512;2023-02-22T03:48:41;101472.13;;;19.94
77789;BMP280;66980;44.384;0.512;2023-02-22T03:51:08;101472.13;;;19.94
77789;BMP280;66980;44.384;0.512;2023-02-22T03:53:34;101473.63;;;19.96
77789;BMP280;66980;44.384;0.512;2023-02-22T03:56:03;101480.31;;;20.00
77789;BMP280;66980;44.384;0.512;2023-02-22T03:58:33;101479.16;;;19.96
77789;BMP280;66980;44.384;0.512;2023-02-22T04:00:59;101481.56;;;19.99
77789;BMP280;66980;44.384;0.512;2023-02-22T04:03:25;101459.00;;;19.87
77789;BMP280;66980;44.384;0.512;2023-02-22T04:05:50;101472.44;;;19.91
77789;BMP280;66980;44.384;0.512;2023-02-22T04:08:16;101480.41;;;19.94
77789;BMP280;66980;44.384;0.512;2023-02-22T04:10:43;101477.22;;;19.90
77789;BMP280;66980;44.384;0.512;2023-02-22T04:13:09;101480.19;;;19.92
77789;BMP280;66980;44.384;0.512;2023-02-22T04:15:35;101479.44;;;19.92
77789;BMP280;66980;44.384;0.512;2023-02-22T04:18:00;101472.22;;;19.89
77789;BMP280;66980;44.384;0.512;2023-02-22T04:20:26;101458.78;;;19.85
77789;BMP280;66980;44.384;0.512;2023-02-22T04:22:52;101467.47;;;19.89
77789;BMP280;66980;44.384;0.512;2023-02-22T04:25:19;101474.25;;;19.88
77789;BMP280;66980;44.384;0.512;2023-02-22T04:27:45;101479.00;;;19.88
77789;BMP280;66980;44.384;0.512;2023-02-22T04:30:10;101467.06;;;19.85
77789;BMP280;66980;44.384;0.512;2023-02-22T04:32:37;101468.63;;;19.81
77789;BMP280;66980;44.384;0.512;2023-02-22T04:35:04;101466.72;;;19.76
77789;BMP280;66980;44.384;0.512;2023-02-22T04:37:30;101475.84;;;19.84
77789;BMP280;66980;44.384;0.512;2023-02-22T04:39:59;101479.88;;;19.83
77789;BMP280;66980;44.384;0.512;2023-02-22T04:42:25;101474.47;;;19.77
77789;BMP280;66980;44.384;0.512;2023-02-22T04:44:51;101484.41;;;19.80
77789;BMP280;66980;44.384;0.512;2023-02-22T04:47:16;101482.72;;;19.77
77789;BMP280;66980;44.384;0.512;2023-02-22T04:49:42;101487.69;;;19.79
77789;BMP280;66980;44.384;0.512;2023-02-22T04:52:07;101483.25;;;19.76
77789;BMP280;66980;44.384;0.512;2023-02-22T04:54:33;101479.00;;;19.75
77789;BMP280;66980;44.384;0.512;2023-02-22T04:56:58;101483.03;;;19.74
77789;BMP280;66980;44.384;0.512;2023-02-22T04:59:24;101484.09;;;19.70
77789;BMP280;66980;44.384;0.512;2023-02-22T05:01:49;101498.28;;;19.75
77789;BMP280;66980;44.384;0.512;2023-02-22T05:04:15;101491.09;;;19.72
77789;BMP280;66980;44.384;0.512;2023-02-22T05:06:40;101485.88;;;19.68
77789;BMP280;66980;44.384;0.512;2023-02-22T05:09:07;101489.59;;;19.70
77789;BMP280;66980;44.384;0.512;2023-02-22T05:11:32;101477.72;;;19.62
77789;BMP280;66980;44.384;0.512;2023-02-22T05:13:58;101486.66;;;19.68
77789;BMP280;66980;44.384;0.512;2023-02-22T05:16:23;101484.41;;;19.67
77789;BMP280;66980;44.384;0.512;2023-02-22T05:18:49;101485.16;;;19.67
77789;BMP280;66980;44.384;0.512;2023-02-22T05:21:14;101473.03;;;19.57
77789;BMP280;66980;44.384;0.512;2023-02-22T05:23:40;101488.25;;;19.64
77789;BMP280;66980;44.384;0.512;2023-02-22T05:26:06;101484.06;;;19.57
77789;BMP280;66980;44.384;0.512;2023-02-22T05:28:31;101488.25;;;19.64
77789;BMP280;66980;44.384;0.512;2023-02-22T05:30:57;101490.22;;;19.63
77789;BMP280;66980;44.384;0.512;2023-02-22T05:33:22;101487.03;;;19.59
77789;BMP280;66980;44.384;0.512;2023-02-22T05:35:48;101489.81;;;19.59
77789;BMP280;66980;44.384;0.512;2023-02-22T05:38:15;101485.13;;;19.54
77789;BMP280;66980;44.384;0.512;2023-02-22T05:40:41;101496.28;;;19.62
77789;BMP280;66980;44.384;0.512;2023-02-22T05:43:07;101484.28;;;19.59
77789;BMP280;66980;44.384;0.512;2023-02-22T05:45:33;101491.06;;;19.58
77789;BMP280;66980;44.384;0.512;2023-02-22T05:48:00;101491.06;;;19.58
77789;BMP280;66980;44.384;0.512;2023-02-22T05:50:26;101488.13;;;19.56
77789;BMP280;66980;44.384;0.512;2023-02-22T05:52:52;101482.63;;;19.56
77789;BMP280;66980;44.384;0.512;2023-02-22T05:55:21;101493.63;;;19.56
77789;BMP280;66980;44.384;0.512;2023-02-22T05:57:48;101479.94;;;19.51
77789;BMP280;66980;44.384;0.512;2023-02-22T06:00:17;101478.97;;;19.48
77789;BMP280;66980;44.384;0.512;2023-02-22T06:02:42;101484.91;;;19.52
77789;BMP280;66980;44.384;0.512;2023-02-22T06:05:08;101485.97;;;19.49
77789;BMP280;66980;44.384;0.512;2023-02-22T06:07:33;101484.72;;;19.50
77789;BMP280;66980;44.384;0.512;2023-02-22T06:09:59;101491.69;;;19.51
77789;BMP280;66980;44.384;0.512;2023-02-22T06:12:24;101487.47;;;19.50
77789;BMP280;66980;44.384;0.512;2023-02-22T06:14:50;101485.22;;;19.49
77789;BMP280;66980;44.384;0.512;2023-02-22T06:17:15;101487.78;;;19.47
77789;BMP280;66980;44.384;0.512;2023-02-22T06:19:41;101484.03;;;19.44
77789;BMP280;66980;44.384;0.512;2023-02-22T06:22:07;101488.53;;;19.47
77789;BMP280;66980;44.384;0.512;2023-02-22T06:24:33;101489.78;;;19.46
77789;BMP280;66980;44.384;0.512;2023-02-22T06:27:00;101475.91;;;19.38
77789;BMP280;66980;44.384;0.512;2023-02-22T06:29:27;101479.09;;;19.42
77789;BMP280;66980;44.384;0.512;2023-02-22T06:31:53;101485.31;;;19.43
77789;BMP280;66980;44.384;0.512;2023-02-22T06:34:19;101483.84;;;19.42
77789;BMP280;66980;44.384;0.512;2023-02-22T06:36:47;101481.16;;;19.36
77789;BMP280;66980;44.384;0.512;2023-02-22T06:39:14;101484.34;;;19.40
77789;BMP280;66980;44.384;0.512;2023-02-22T06:41:41;101486.16;;;19.38
77789;BMP280;66980;44.384;0.512;2023-02-22T06:44:08;101481.41;;;19.38
77789;BMP280;66980;44.384;0.512;2023-02-22T06:46:35;101481.94;;;19.37
77789;BMP280;66980;44.384;0.512;2023-02-22T06:49:01;101489.66;;;19.38
77789;BMP280;66980;44.384;0.512;2023-02-22T06:51:27;101497.47;;;19.34
77789;BMP280;66980;44.384;0.512;2023-02-22T06:53:53;101496.22;;;19.35
77789;BMP280;66980;44.384;0.512;2023-02-22T06:56:19;101489.97;;;19.35
77789;BMP280;66980;44.384;0.512;2023-02-22T06:58:44;101498.97;;;19.35
77789;BMP280;66980;44.384;0.512;2023-02-22T07:01:10;101492.81;;;19.29
77789;BMP280;66980;44.384;0.512;2023-02-22T07:03:36;101505.72;;;19.34
77789;BMP280;66980;44.384;0.512;2023-02-22T07:06:01;101488.03;;;19.30
77789;BMP280;66980;44.384;0.512;2023-02-22T07:08:29;101495.03;;;19.31
77789;BMP280;66980;44.384;0.512;2023-02-22T07:10:55;101495.78;;;19.31
77789;BMP280;66980;44.384;0.512;2023-02-22T07:13:20;101489.53;;;19.31
77789;BMP280;66980;44.384;0.512;2023-02-22T07:15:46;101499.03;;;19.30
77789;BMP280;66980;44.384;0.512;2023-02-22T07:18:12;101499.03;;;19.30
77789;BMP280;66980;44.384;0.512;2023-02-22T07:20:38;101500.34;;;19.29
77789;BMP280;66980;44.384;0.512;2023-02-22T07:23:05;101507.84;;;19.28
77789;BMP280;66980;44.384;0.512;2023-02-22T07:25:30;101506.34;;;19.27
77789;BMP280;66980;44.384;0.512;2023-02-22T07:27:56;101512.94;;;19.24
77789;BMP280;66980;44.384;0.512;2023-02-22T07:30:28;101503.25;;;19.17
77789;BMP280;66980;44.384;0.512;2023-02-22T07:32:59;101513.66;;;19.25
77789;BMP280;66980;44.384;0.512;2023-02-22T07:35:29;101508.88;;;19.25
77789;BMP280;66980;44.384;0.512;2023-02-22T07:37:54;101501.47;;;19.20
77789;BMP280;66980;44.384;0.512;2023-02-22T07:40:21;101509.41;;;19.24
77789;BMP280;66980;44.384;0.512;2023-02-22T07:45:21;101509.94;;;19.22
77789;BMP280;66980;44.384;0.512;2023-02-22T07:47:47;101511.94;;;19.21
77789;BMP280;66980;44.384;0.512;2023-02-22T07:50:14;101510.44;;;19.20
77789;BMP280;66980;44.384;0.512;2023-02-22T07:52:44;101503.34;;;19.12
77789;BMP280;66980;44.384;0.512;2023-02-22T07:55:09;101511.50;;;19.17
77789;BMP280;66980;44.384;0.512;2023-02-22T07:57:35;101520.50;;;19.18
77789;BMP280;66980;44.384;0.512;2023-02-22T08:00:00;101516.59;;;19.13
77789;BMP280;66980;44.384;0.512;2023-02-22T08:02:26;101526.75;;;19.18
77789;BMP280;66980;44.384;0.512;2023-02-22T08:04:51;101532.78;;;19.17
77789;BMP280;66980;44.384;0.512;2023-02-22T08:07:17;101522.09;;;19.13
77789;BMP280;66980;44.384;0.512;2023-02-22T08:09:42;101521.31;;;19.13
77789;BMP280;66980;44.384;0.512;2023-02-22T08:12:07;101524.59;;;19.11
77789;BMP280;66980;44.384;0.512;2023-02-22T08:14:33;101526.31;;;19.14
77789;BMP280;66980;44.384;0.512;2023-02-22T08:16:58;101531.38;;;19.10
77789;BMP280;66980;44.384;0.512;2023-02-22T08:19:24;101522.59;;;19.12
77789;BMP280;66980;44.384;0.512;2023-02-22T08:21:49;101530.13;;;19.11
77789;BMP280;66980;44.384;0.512;2023-02-22T08:24:15;101532.88;;;19.11
77789;BMP280;66980;44.384;0.512;2023-02-22T08:26:44;101543.88;;;19.11
77789;BMP280;66980;44.384;0.512;2023-02-22T08:29:10;101540.38;;;19.11
77789;BMP280;66980;44.384;0.512;2023-02-22T08:31:35;101537.94;;;19.07
77789;BMP280;66980;44.384;0.512;2023-02-22T08:34:01;101529.47;;;19.05
77789;BMP280;66980;44.384;0.512;2023-02-22T08:36:26;101539.41;;;19.08
77789;BMP280;66980;44.384;0.512;2023-02-22T08:38:53;101531.97;;;19.03
77789;BMP280;66980;44.384;0.512;2023-02-22T08:41:19;101536.44;;;19.06
77789;BMP280;66980;44.384;0.512;2023-02-22T08:43:44;101536.44;;;19.06
77789;BMP280;66980;44.384;0.512;2023-02-22T08:46:10;101533.47;;;19.04
77789;BMP280;66980;44.384;0.512;2023-02-22T08:48:35;101539.72;;;19.05
77789;BMP280;66980;44.384;0.512;2023-02-22T08:51:01;101530.28;;;19.00
77789;BMP280;66980;44.384;0.512;2023-02-22T08:53:26;101536.72;;;19.03
77789;BMP280;66980;44.384;0.512;2023-02-22T08:55:52;101543.72;;;19.04
77789;BMP280;66980;44.384;0.512;2023-02-22T08:58:18;101535.97;;;19.02
77789;BMP280;66980;44.384;0.512;2023-02-22T09:00:43;101541.47;;;19.02
77789;BMP280;66980;44.384;0.512;2023-02-22T09:03:12;101525.59;;;18.95
77789;BMP280;66980;44.384;0.512;2023-02-22T09:05:38;101529.53;;;19.00
77789;BMP280;66980;44.384;0.512;2023-02-22T09:08:04;101539.25;;;19.01
77789;BMP280;66980;44.384;0.512;2023-02-22T09:10:32;101542.03;;;19.01
77789;BMP280;66980;44.384;0.512;2023-02-22T09:12:57;101542.03;;;19.01
77789;BMP280;66980;44.384;0.512;2023-02-22T09:15:25;101540.03;;;19.01
77789;BMP280;66980;44.384;0.512;2023-02-22T09:17:52;101539.25;;;19.01
77789;BMP280;66980;44.384;0.512;2023-02-22T09:20:19;101538.53;;;19.00
77789;BMP280;66980;44.384;0.512;2023-02-22T09:22:46;101541.03;;;18.98
77789;BMP280;66980;44.384;0.512;2023-02-22T09:25:12;101535.78;;;19.00
77789;BMP280;66980;44.384;0.512;2023-02-22T09:27:38;101524.78;;;19.00
77789;BMP280;66980;44.384;0.512;2023-02-22T09:30:05;101534.28;;;18.99
77789;BMP280;66980;44.384;0.512;2023-02-22T09:32:31;101537.78;;;19.00
77789;BMP280;66980;44.384;0.512;2023-02-22T09:34:57;101539.78;;;18.99
77789;BMP280;66980;44.384;0.512;2023-02-22T09:37:22;101528.59;;;18.97
77789;BMP280;66980;44.384;0.512;2023-02-22T09:39:48;101526.84;;;18.94
77789;BMP280;66980;44.384;0.512;2023-02-22T09:42:30;101531.53;;;18.99
77789;BMP280;66980;44.384;0.512;2023-02-22T09:45:13;101523.28;;;18.99
77789;BMP280;66980;44.384;0.512;2023-02-22T09:47:51;101529.53;;;19.00
77789;BMP280;66980;44.384;0.512;2023-02-22T09:50:21;101527.53;;;19.00
77789;BMP280;66980;44.384;0.512;2023-02-22T09:53:01;101520.97;;;19.03
77789;BMP280;66980;44.384;0.512;2023-02-22T09:55:35;101530.00;;;19.17
77789;BMP280;66980;44.384;0.512;2023-02-22T09:58:06;101526.41;;;19.41
77789;BMP280;66980;44.384;0.512;2023-02-22T10:00:38;101529.00;;;19.65
77789;BMP280;66980;44.384;0.512;2023-02-22T10:05:38;101529.25;;;20.07
77789;BMP280;66980;44.384;0.512;2023-02-22T10:08:11;101527.56;;;20.31
77789;BMP280;66980;44.384;0.512;2023-02-22T10:10:43;101534.63;;;20.53
77789;BMP280;66980;44.384;0.512;2023-02-22T10:13:39;101532.66;;;20.74
77789;BMP280;66980;44.384;0.512;2023-02-22T10:19:55;101534.28;;;20.90
77789;BMP280;66980;44.384;0.512;2023-02-22T10:27:22;101537.47;;;21.93
77789;BMP280;66980;44.384;0.512;2023-02-22T10:29:52;101522.28;;;22.08
77789;BMP280;66980;44.384;0.512;2023-02-22T10:32:39;101523.84;;;22.24
77789;BMP280;66980;44.384;0.512;2023-02-22T10:35:17;101519.44;;;22.36
77789;BMP280;66980;44.384;0.512;2023-02-22T10:37:45;101523.19;;;22.46
77789;BMP280;66980;44.384;0.512;2023-02-22T10:40:21;101532.03;;;22.53
77789;BMP280;66980;44.384;0.512;2023-02-22T10:42:49;101530.97;;;22.63
77789;BMP280;66980;44.384;0.512;2023-02-22T10:45:27;101519.69;;;22.69
77789;BMP280;66980;44.384;0.512;2023-02-22T10:47:55;101522.50;;;22.77
77789;BMP280;66980;44.384;0.512;2023-02-22T10:50:25;101521.38;;;22.80
77789;BMP280;66980;44.384;0.512;2023-02-22T10:52:52;101521.94;;;22.86
77789;BMP280;66980;44.384;0.512;2023-02-22T10:55:19;101516.41;;;22.86
77789;BMP280;66980;44.384;0.512;2023-02-22T10:57:48;101516.78;;;22.90
77789;BMP280;66980;44.384;0.512;2023-02-22T11:00:22;101517.16;;;22.94
77789;BMP280;66980;44.384;0.512;2023-02-22T11:03:01;101513.66;;;22.93
77789;BMP280;66980;44.384;0.512;2023-02-22T11:05:38;101521.25;;;22.93
77789;BMP280;66980;44.384;0.512;2023-02-22T11:10:46;101512.16;;;22.92
77789;BMP280;66980;44.384;0.512;2023-02-22T11:13:29;101518.66;;;22.95
77789;BMP280;66980;44.384;0.512;2023-02-22T11:16:16;101511.63;;;22.94
77789;BMP280;66980;44.384;0.512;2023-02-22T11:18:43;101511.63;;;22.94
77789;BMP280;66980;44.384;0.512;2023-02-22T11:21:10;101504.25;;;22.96
77789;BMP280;66980;44.384;0.512;2023-02-22T11:23:39;101507.41;;;22.93
77789;BMP280;66980;44.384;0.512;2023-02-22T11:26:10;101502.59;;;22.93
77789;BMP280;66980;44.384;0.512;2023-02-22T11:28:45;101501.09;;;22.92
77789;BMP280;66980;44.384;0.512;2023-02-22T11:31:18;101507.41;;;22.93
77789;BMP280;66980;44.384;0.512;2023-02-22T11:34:05;101507.94;;;22.91
77789;BMP280;66980;44.384;0.512;2023-02-22T11:36:33;101487.44;;;22.87
77789;BMP280;66980;44.384;0.512;2023-02-22T11:39:20;101488.38;;;22.82
77789;BMP280;66980;44.384;0.512;2023-02-22T11:41:46;101482.09;;;22.81
77789;BMP280;66980;44.384;0.512;2023-02-22T11:44:31;101483.97;;;22.86
77789;BMP280;66980;44.384;0.512;2023-02-22T11:47:00;101480.06;;;22.82
77789;BMP280;66980;44.384;0.512;2023-02-22T11:49:42;101473.78;;;22.81
77789;BMP280;66980;44.384;0.512;2023-02-22T11:52:39;101467.34;;;22.79
77789;BMP280;66980;44.384;0.512;2023-02-22T11:55:23;101470.81;;;22.79
77789;BMP280;66980;44.384;0.512;2023-02-22T12:16:39;101445.34;;;22.58
77789;BMP280;66980;44.384;0.512;2023-02-22T12:19:18;101440.34;;;22.56
77789;BMP280;66980;44.384;0.512;2023-02-22T12:21:53;101424.84;;;22.45
77789;BMP280;66980;44.384;0.512;2023-02-22T12:24:24;101434.66;;;22.46
77789;BMP280;66980;44.384;0.512;2023-02-22T12:27:22;101437.94;;;22.45
77789;BMP280;66980;44.384;0.512;2023-02-22T12:29:58;101430.75;;;22.42
77789;BMP280;66980;44.384;0.512;2023-02-22T12:32:40;101429.09;;;22.39
77789;BMP280;66980;44.384;0.512;2023-02-22T12:35:17;101423.38;;;22.37
77789;BMP280;66980;44.384;0.512;2023-02-22T12:43:28;101423.72;;;22.26
77789;BMP280;66980;44.384;0.512;2023-02-22T12:46:01;101415.25;;;22.24
77789;BMP280;66980;44.384;0.512;2023-02-22T12:56:41;101413.53;;;22.13
77789;BMP280;66980;44.384;0.512;2023-02-22T12:59:31;101405.06;;;22.11
77789;BMP280;66980;44.384;0.512;2023-02-22T13:04:48;101395.47;;;22.04
77789;BMP280;66980;44.384;0.512;2023-02-22T13:15:43;101395.09;;;22.00
77789;BMP280;66980;44.384;0.512;2023-02-22T13:18:18;101398.91;;;21.97
77789;BMP280;66980;44.384;0.512;2023-02-22T13:23:35;101398.16;;;21.89
77789;BMP280;66980;44.384;0.512;2023-02-22T13:26:27;101403.50;;;21.87
77789;BMP280;66980;44.384;0.512;2023-02-22T13:29:12;101402.03;;;21.86
77789;BMP280;66980;44.384;0.512;2023-02-22T13:34:36;101392.63;;;21.89
77789;BMP280;66980;44.384;0.512;2023-02-22T13:52:06;101362.00;;;21.72
77789;BMP280;66980;44.384;0.512;2023-02-22T13:59:46;101358.69;;;21.73
77789;BMP280;66980;44.384;0.512;2023-02-22T14:16:20;101355.88;;;21.58
77789;BMP280;66980;44.384;0.512;2023-02-22T14:18:48;101354.19;;;21.55
77789;BMP280;66980;44.384;0.512;2023-02-22T14:21:21;101355.50;;;21.54
77789;BMP280;66980;44.384;0.512;2023-02-22T14:23:51;101361.56;;;21.52
77789;BMP280;66980;44.384;0.512;2023-02-22T14:26:30;101360.81;;;21.52
77789;BMP280;66980;44.384;0.512;2023-02-22T14:34:09;101359.47;;;21.45
77789;BMP280;66980;44.384;0.512;2023-02-22T14:36:41;101362.06;;;21.43
77789;BMP280;66980;44.384;0.512;2023-02-22T14:39:13;101359.31;;;21.43
77789;BMP280;66980;44.384;0.512;2023-02-22T14:41:43;101348.00;;;21.33
77789;BMP280;66980;44.384;0.512;2023-02-22T14:44:22;101365.72;;;21.38
77789;BMP280;66980;44.384;0.512;2023-02-22T14:46:49;101364.25;;;21.37
77789;BMP280;66980;44.384;0.512;2023-02-22T14:49:20;101367.56;;;21.35
77789;BMP280;66980;44.384;0.512;2023-02-22T14:51:54;101354.03;;;21.24
77789;BMP280;66980;44.384;0.512;2023-02-22T14:54:35;101366.41;;;21.31
77789;BMP280;66980;44.384;0.512;2023-02-22T14:57:14;101366.03;;;21.27
77789;BMP280;66980;44.384;0.512;2023-02-22T15:00:06;101364.00;;;21.27
77789;BMP280;66980;44.384;0.512;2023-02-22T15:02:56;101358.28;;;21.25
77789;BMP280;66980;44.384;0.512;2023-02-22T15:05:24;101356.25;;;21.26
77789;BMP280;66980;44.384;0.512;2023-02-22T15:07:57;101350.16;;;21.19
77789;BMP280;66980;44.384;0.512;2023-02-22T15:10:27;101353.84;;;21.22
77789;BMP280;66980;44.384;0.512;2023-02-22T15:13:02;101348.84;;;21.20
77789;BMP280;66980;44.384;0.512;2023-02-22T15:15:39;101351.44;;;21.18
77789;BMP280;66980;44.384;0.512;2023-02-22T15:18:25;101350.16;;;21.19
77789;BMP280;66980;44.384;0.512;2023-02-22T15:20:54;101350.88;;;21.20
77789;BMP280;66980;44.384;0.512;2023-02-22T15:23:27;101352.34;;;21.21
77789;BMP280;66980;44.384;0.512;2023-02-22T15:25:55;101349.81;;;21.23
77789;BMP280;66980;44.384;0.512;2023-02-22T15:28:22;101355.50;;;21.25
77789;BMP280;66980;44.384;0.512;2023-02-22T15:30:48;101352.22;;;21.27
77789;BMP280;66980;44.384;0.512;2023-02-22T15:33:16;101361.09;;;21.33
77789;BMP280;66980;44.384;0.512;2023-02-22T15:35:53;101352.44;;;21.36
77789;BMP280;66980;44.384;0.512;2023-02-22T15:38:25;101349.47;;;21.34
77789;BMP280;66980;44.384;0.512;2023-02-22T15:41:03;101350.03;;;21.33
77789;BMP280;66980;44.384;0.512;2023-02-22T15:43:29;101338.63;;;21.36
77789;BMP280;66980;44.384;0.512;2023-02-22T15:45:57;101340.66;;;21.36
77789;BMP280;66980;44.384;0.512;2023-02-22T15:48:22;101341.75;;;21.33
77789;BMP280;66980;44.384;0.512;2023-02-22T15:51:04;101354.66;;;21.38
77789;BMP280;66980;44.384;0.512;2023-02-22T15:53:51;101343.44;;;21.36
77789;BMP280;66980;44.384;0.512;2023-02-22T15:56:23;101338.44;;;21.34
77789;BMP280;66980;44.384;0.512;2023-02-22T15:58:50;101334.41;;;21.35
77789;BMP280;66980;44.384;0.512;2023-02-22T16:01:18;101339.72;;;21.33
77789;BMP280;66980;44.384;0.512;2023-02-22T16:03:56;101339.53;;;21.31
77789;BMP280;66980;44.384;0.512;2023-02-22T16:09:06;101335.84;;;21.29
77789;BMP280;66980;44.384;0.512;2023-02-22T16:22:50;101320.13;;;21.16
77789;BMP280;66980;44.384;0.512;2023-02-22T16:27:47;101317.56;;;21.18
77789;BMP280;66980;44.384;0.512;2023-02-22T16:32:41;101316.81;;;21.17
77789;BMP280;66980;44.384;0.512;2023-02-22T16:35:07;101321.47;;;21.23
77789;BMP280;66980;44.384;0.512;2023-02-22T16:37:50;101321.47;;;21.30
77789;BMP280;66980;44.384;0.512;2023-02-22T16:40:21;101333.69;;;21.42
77789;BMP280;66980;44.384;0.512;2023-02-22T16:42:47;101332.44;;;21.51